Time;durP1;ratioP1;P1;durP2;ratioP2;P2;SDS_P1;SDS_P2;PMS_P1;PMS_P2;Temp;Humidity;BMP_temperature;BMP_pressure;BME280_temperature;BME280_humidity;BME280_pressure;Samples;Min_cycle;Max_cycle;Signal;HPM_P1;HPM_P2
2022/08/23 00:01:11;;;;;;;3.87;2.30;;;19.00;99.90;;;;;;5066809;28;20196;-45
2022/08/23 00:03:37;;;;;;;4.80;2.60;;;19.00;99.90;;;;;;5048397;28;20184;-45
2022/08/23 00:06:02;;;;;;;5.77;2.67;;;18.90;99.90;;;;;;5064986;28;20180;-45
2022/08/23 00:08:28;;;;;;;4.63;2.50;;;18.80;99.90;;;;;;5065417;28;20207;-45
2022/08/23 00:10:55;;;;;;;4.10;2.57;;;18.80;99.90;;;;;;5046612;28;20212;-45
2022/08/23 00:13:21;;;;;;;4.27;2.40;;;18.70;99.90;;;;;;5064873;28;20243;-45
2022/08/23 00:15:46;;;;;;;4.50;2.43;;;18.70;99.90;;;;;;5057294;28;20188;-39
2022/08/23 00:18:13;;;;;;;2.90;2.37;;;18.50;99.90;;;;;;5055790;28;20528;-42
2022/08/23 00:20:39;;;;;;;4.50;2.60;;;18.50;99.90;;;;;;5037566;28;20202;-39
2022/08/23 00:23:04;;;;;;;3.70;2.10;;;18.50;99.90;;;;;;5055411;28;20279;-41
2022/08/23 00:25:30;;;;;;;4.57;2.20;;;18.40;99.90;;;;;;5055605;28;20181;-40
2022/08/23 00:27:56;;;;;;;8.80;2.50;;;18.30;99.90;;;;;;5055396;28;20260;-41
2022/08/23 00:30:22;;;;;;;6.10;2.20;;;18.30;99.90;;;;;;5055172;28;20687;-42
2022/08/23 00:32:47;;;;;;;5.73;2.67;;;18.20;99.90;;;;;;5055280;28;20177;-42
2022/08/23 00:35:14;;;;;;;2.90;2.27;;;18.20;99.90;;;;;;5055203;28;20179;-41
2022/08/23 00:37:39;;;;;;;6.20;2.77;;;18.20;99.90;;;;;;5055012;28;20219;-45
2022/08/23 00:40:09;;;;;;;7.80;2.43;;;18.10;99.90;;;;;;5055170;28;20176;-41
2022/08/23 00:48:37;;;;;;;4.43;2.53;;;17.90;99.90;;;;;;5055266;28;20250;-40
2022/08/23 00:51:07;;;;;;;3.93;2.27;;;17.90;99.90;;;;;;5054735;28;20710;-38
2022/08/23 00:53:37;;;;;;;4.07;2.10;;;17.90;99.90;;;;;;5055190;28;20160;-41
2022/08/23 00:56:07;;;;;;;3.40;2.10;;;17.80;99.90;;;;;;5055084;28;20627;-40
2022/08/23 00:58:34;;;;;;;3.57;2.17;;;17.80;99.90;;;;;;5054740;28;20678;-41
2022/08/23 01:01:01;;;;;;;4.47;2.27;;;17.70;99.90;;;;;;5054718;28;20663;-41
2022/08/23 01:03:30;;;;;;;6.40;2.37;;;17.80;99.90;;;;;;5054635;28;20176;-41
2022/08/23 01:06:02;;;;;;;5.13;2.63;;;17.70;99.90;;;;;;5055291;28;20279;-42
2022/08/23 01:08:30;;;;;;;5.73;2.50;;;17.60;99.90;;;;;;5054941;28;20175;-41
2022/08/23 01:11:03;;;;;;;5.50;2.53;;;17.60;99.90;;;;;;5054607;28;20208;-41
2022/08/23 01:13:43;;;;;;;2.67;2.20;;;17.60;99.90;;;;;;5054362;28;20699;-41
2022/08/23 01:16:22;;;;;;;5.13;2.37;;;17.50;99.90;;;;;;5054648;28;20616;-39
2022/08/23 01:18:49;;;;;;;3.70;2.67;;;17.40;99.90;;;;;;5054660;28;20206;-41
2022/08/23 01:21:40;;;;;;;4.37;3.20;;;17.40;99.90;;;;;;5054391;28;20196;-41
2022/08/23 01:24:06;;;;;;;3.97;3.03;;;17.30;99.90;;;;;;5054653;28;20173;-41
2022/08/23 01:26:34;;;;;;;3.83;2.97;;;17.30;99.90;;;;;;5054271;28;20177;-41
2022/08/23 01:29:01;;;;;;;7.83;3.70;;;17.30;99.90;;;;;;5054225;28;20210;-39
2022/08/23 01:31:27;;;;;;;5.20;3.53;;;17.20;99.90;;;;;;5054452;28;20203;-43
2022/08/23 01:34:03;;;;;;;5.20;3.60;;;17.20;99.90;;;;;;5054126;28;20225;-43
2022/08/23 01:36:29;;;;;;;6.90;3.47;;;17.10;99.90;;;;;;5036232;28;20176;-43
2022/08/23 01:38:55;;;;;;;4.80;3.00;;;17.10;99.90;;;;;;5053917;28;20269;-43
2022/08/23 01:41:21;;;;;;;6.57;4.10;;;17.10;99.90;;;;;;5054066;28;20228;-43
2022/08/23 01:43:47;;;;;;;7.10;3.40;;;17.10;99.90;;;;;;5036028;28;20263;-43
2022/08/23 01:46:16;;;;;;;5.53;3.60;;;17.00;99.90;;;;;;5054049;28;20658;-43
2022/08/23 01:48:45;;;;;;;5.47;3.60;;;17.00;99.90;;;;;;5053863;28;20195;-43
2022/08/23 01:51:11;;;;;;;7.47;3.90;;;17.00;99.90;;;;;;5053739;28;20557;-43
2022/08/23 01:53:37;;;;;;;6.47;3.63;;;16.90;99.90;;;;;;5053781;28;20177;-44
2022/08/23 01:56:04;;;;;;;6.40;3.77;;;16.90;99.90;;;;;;5053778;28;20177;-43
2022/08/23 01:58:31;;;;;;;4.97;3.47;;;16.90;99.90;;;;;;5053566;28;20650;-43
2022/08/23 02:00:57;;;;;;;6.00;4.00;;;16.80;99.90;;;;;;5053677;28;20675;-42
2022/08/23 02:03:23;;;;;;;4.10;2.97;;;16.80;99.90;;;;;;5053926;28;20183;-45
2022/08/23 02:05:49;;;;;;;7.53;3.80;;;16.70;99.90;;;;;;5053562;28;20536;-43
2022/08/23 02:10:59;;;;;;;6.30;3.80;;;16.70;99.90;;;;;;5053431;28;20238;-43
2022/08/23 02:13:25;;;;;;;6.03;3.87;;;16.60;99.90;;;;;;5053645;28;20187;-44
2022/08/23 02:15:51;;;;;;;9.00;4.10;;;16.50;99.90;;;;;;5053492;28;20172;-44
2022/08/23 02:18:19;;;;;;;9.47;4.00;;;16.50;99.90;;;;;;5053414;28;20177;-44
2022/08/23 02:20:49;;;;;;;7.10;3.60;;;16.50;99.90;;;;;;5053581;28;20196;-41
2022/08/23 02:23:15;;;;;;;5.47;3.57;;;16.40;99.90;;;;;;5053419;28;20181;-44
2022/08/23 02:25:42;;;;;;;5.47;3.67;;;16.40;99.90;;;;;;5034916;28;20219;-43
2022/08/23 02:28:08;;;;;;;6.67;3.83;;;16.30;99.90;;;;;;5053565;28;20656;-44
2022/08/23 02:30:33;;;;;;;6.37;4.00;;;16.40;99.90;;;;;;5055240;28;20223;-45
2022/08/23 02:32:59;;;;;;;9.10;3.53;;;16.30;99.90;;;;;;5058279;28;20207;-43
2022/08/23 02:35:25;;;;;;;4.33;3.47;;;16.20;99.90;;;;;;5054869;28;20172;-43
2022/08/23 02:37:51;;;;;;;4.33;3.70;;;16.20;99.90;;;;;;5053125;28;20204;-44
2022/08/23 02:40:17;;;;;;;7.03;3.80;;;16.20;99.90;;;;;;5053433;28;20242;-43
2022/08/23 02:42:43;;;;;;;7.00;3.53;;;16.10;99.90;;;;;;5053410;28;20223;-42
2022/08/23 02:45:10;;;;;;;6.20;3.23;;;16.10;99.90;;;;;;5053677;28;20184;-44
2022/08/23 02:47:36;;;;;;;6.10;4.17;;;16.10;99.90;;;;;;5054258;28;20655;-44
2022/08/23 02:50:06;;;;;;;5.83;3.23;;;16.00;99.90;;;;;;5054642;28;20200;-43
2022/08/23 02:52:33;;;;;;;5.60;3.93;;;16.00;99.90;;;;;;5054242;28;20192;-42
2022/08/23 02:54:58;;;;;;;5.57;3.90;;;16.00;99.90;;;;;;5054623;28;20194;-45
2022/08/23 02:57:25;;;;;;;7.60;4.10;;;16.00;99.90;;;;;;5053424;28;20632;-42
2022/08/23 02:59:51;;;;;;;6.27;3.47;;;15.90;99.90;;;;;;5052987;28;20184;-43
2022/08/23 03:02:17;;;;;;;5.20;3.87;;;15.90;99.90;;;;;;5053153;28;20235;-43
2022/08/23 03:04:43;;;;;;;7.07;3.93;;;15.90;99.90;;;;;;5052994;28;20184;-44
2022/08/23 03:07:08;;;;;;;4.57;3.73;;;15.90;99.90;;;;;;5052929;28;20180;-42
2022/08/23 03:09:34;;;;;;;6.87;3.90;;;15.90;99.90;;;;;;5053383;28;20231;-43
2022/08/23 03:12:00;;;;;;;6.17;3.73;;;15.80;99.90;;;;;;5052897;28;20214;-44
2022/08/23 03:14:26;;;;;;;6.03;4.07;;;15.80;99.90;;;;;;5052922;28;20172;-43
2022/08/23 03:16:52;;;;;;;6.53;3.70;;;15.80;99.90;;;;;;5053023;28;20177;-43
2022/08/23 03:19:18;;;;;;;6.20;3.60;;;15.80;99.90;;;;;;5052778;28;20184;-42
2022/08/23 03:21:44;;;;;;;6.73;4.10;;;15.80;99.90;;;;;;5052824;28;20668;-43
2022/08/23 03:24:10;;;;;;;7.43;4.30;;;15.70;99.90;;;;;;5053269;28;20180;-44
2022/08/23 03:26:36;;;;;;;4.83;3.90;;;15.70;99.90;;;;;;5052746;28;20176;-43
2022/08/23 03:29:03;;;;;;;4.27;3.73;;;15.70;99.90;;;;;;5052637;28;20183;-44
2022/08/23 03:31:29;;;;;;;6.50;4.00;;;15.70;99.90;;;;;;5052602;28;20219;-42
2022/08/23 03:33:54;;;;;;;6.67;4.20;;;15.60;99.90;;;;;;5052698;28;20165;-43
2022/08/23 03:36:20;;;;;;;9.73;4.20;;;15.60;99.90;;;;;;5054274;28;20180;-44
2022/08/23 03:38:45;;;;;;;6.87;4.13;;;15.60;99.90;;;;;;5039893;28;20199;-44
2022/08/23 03:41:12;;;;;;;6.43;4.20;;;15.60;99.90;;;;;;5058016;28;20215;-42
2022/08/23 03:43:38;;;;;;;6.97;4.27;;;15.50;99.90;;;;;;5058047;28;20180;-45
2022/08/23 03:46:05;;;;;;;5.60;4.30;;;15.50;99.90;;;;;;5056313;28;20188;-43
2022/08/23 03:48:31;;;;;;;6.13;4.30;;;15.50;99.90;;;;;;5056212;28;20215;-43
2022/08/23 03:50:57;;;;;;;6.57;4.30;;;15.40;99.90;;;;;;5056201;28;20228;-44
2022/08/23 03:53:22;;;;;;;6.30;3.87;;;15.40;99.90;;;;;;5056325;28;20184;-44
2022/08/23 03:55:49;;;;;;;6.30;4.30;;;15.40;99.90;;;;;;5056127;28;20524;-45
2022/08/23 03:58:15;;;;;;;7.87;4.43;;;15.40;99.90;;;;;;5056313;28;20165;-45
2022/08/23 04:00:41;;;;;;;6.73;4.37;;;15.40;99.90;;;;;;5056139;28;20208;-45
2022/08/23 04:03:07;;;;;;;7.80;4.53;;;15.30;99.90;;;;;;5056284;28;20183;-43
2022/08/23 04:05:33;;;;;;;7.77;4.20;;;15.30;99.90;;;;;;5037999;28;20184;-44
2022/08/23 04:08:01;;;;;;;7.80;4.70;;;15.30;99.90;;;;;;5056077;28;20233;-40
2022/08/23 04:10:42;;;;;;;4.43;3.60;;;15.30;99.90;;;;;;5056350;28;20287;-38
2022/08/23 04:13:19;;;;;;;9.47;4.53;;;15.30;99.90;;;;;;5037984;28;20215;-38
2022/08/23 04:16:12;;;;;;;6.50;4.20;;;15.20;99.90;;;;;;5053288;28;20181;-40
2022/08/23 04:18:53;;;;;;;6.90;4.03;;;15.20;99.90;;;;;;5037635;28;20206;-40
2022/08/23 04:21:21;;;;;;;6.37;3.80;;;15.20;99.90;;;;;;5055776;28;20589;-41
2022/08/23 04:23:47;;;;;;;7.13;4.40;;;15.20;99.90;;;;;;5055878;28;20172;-40
2022/08/23 04:26:13;;;;;;;6.90;4.50;;;15.20;99.90;;;;;;5055834;28;20192;-39
2022/08/23 04:28:38;;;;;;;6.27;4.10;;;15.20;99.90;;;;;;5055459;28;20184;-41
2022/08/23 04:31:05;;;;;;;5.30;4.30;;;15.20;99.90;;;;;;5037368;28;20224;-39
2022/08/23 04:33:31;;;;;;;7.60;4.53;;;15.20;99.90;;;;;;5055348;28;20176;-41
2022/08/23 04:36:02;;;;;;;5.80;4.13;;;15.20;99.90;;;;;;5055793;28;20175;-40
2022/08/23 04:38:27;;;;;;;7.40;4.23;;;15.20;99.90;;;;;;5055334;28;20220;-41
2022/08/23 04:43:44;;;;;;;8.50;3.83;;;15.20;99.90;;;;;;5055740;28;20199;-41
2022/08/23 04:46:14;;;;;;;6.73;4.20;;;15.20;99.90;;;;;;5055700;28;20546;-41
2022/08/23 04:48:40;;;;;;;7.77;4.43;;;15.10;99.90;;;;;;5054783;28;20212;-39
2022/08/23 04:51:07;;;;;;;8.27;4.30;;;15.20;99.90;;;;;;5055234;28;20223;-40
2022/08/23 04:53:34;;;;;;;7.60;3.83;;;15.20;99.90;;;;;;5037183;28;20176;-40
2022/08/23 04:56:01;;;;;;;10.53;4.30;;;15.20;99.90;;;;;;5055270;28;20245;-41
2022/08/23 04:58:30;;;;;;;5.90;4.20;;;15.20;99.90;;;;;;5054966;28;20184;-41
2022/08/23 05:00:58;;;;;;;7.77;4.57;;;15.20;99.90;;;;;;5054772;28;20200;-40
2022/08/23 05:03:26;;;;;;;6.73;3.80;;;15.30;99.90;;;;;;5055052;28;20326;-40
2022/08/23 05:05:53;;;;;;;7.27;4.60;;;15.30;99.90;;;;;;5054915;28;20282;-41
2022/08/23 05:08:19;;;;;;;10.93;4.60;;;15.40;99.90;;;;;;5054969;28;20560;-41
2022/08/23 05:10:45;;;;;;;5.23;4.03;;;15.40;99.90;;;;;;5054573;28;20644;-41
2022/08/23 05:13:11;;;;;;;6.03;4.47;;;15.50;99.90;;;;;;5054792;28;20624;-40
2022/08/23 05:15:36;;;;;;;6.03;4.33;;;15.50;99.90;;;;;;5054673;28;20191;-41
2022/08/23 05:18:02;;;;;;;5.43;3.93;;;15.50;99.90;;;;;;5054595;28;20179;-39
2022/08/23 05:20:28;;;;;;;4.80;4.30;;;15.60;99.90;;;;;;5054706;28;20215;-39
2022/08/23 05:22:54;;;;;;;4.83;4.07;;;15.60;99.90;;;;;;5054491;28;20175;-39
2022/08/23 05:25:20;;;;;;;6.63;4.40;;;15.70;99.90;;;;;;5054621;28;20591;-42
2022/08/23 05:27:46;;;;;;;4.27;3.87;;;15.70;99.90;;;;;;5054180;28;20275;-41
2022/08/23 05:30:12;;;;;;;12.70;4.97;;;15.70;99.90;;;;;;5054173;28;20341;-41
2022/08/23 05:32:38;;;;;;;11.87;4.63;;;15.70;99.90;;;;;;5054933;28;20238;-39
2022/08/23 05:35:04;;;;;;;11.27;5.03;;;15.70;99.90;;;;;;5054376;28;20177;-40
2022/08/23 05:37:29;;;;;;;9.83;5.10;;;15.80;99.90;;;;;;5054125;28;20200;-41
2022/08/23 05:39:55;;;;;;;7.23;4.80;;;15.80;99.90;;;;;;5054046;28;20259;-41
2022/08/23 05:42:21;;;;;;;10.33;4.80;;;15.90;99.90;;;;;;5054076;28;20231;-37
2022/08/23 05:44:47;;;;;;;7.83;4.60;;;16.00;99.90;;;;;;5036396;28;20187;-42
2022/08/23 05:47:14;;;;;;;10.50;4.97;;;16.00;99.90;;;;;;5054206;28;20184;-40
2022/08/23 05:49:40;;;;;;;12.90;5.47;;;16.10;99.90;;;;;;5053814;28;20286;-39
2022/08/23 05:52:07;;;;;;;12.77;5.20;;;16.10;99.90;;;;;;5036379;28;20711;-40
2022/08/23 05:54:34;;;;;;;9.33;4.73;;;16.20;99.90;;;;;;5036294;28;20184;-40
2022/08/23 05:57:00;;;;;;;8.83;5.37;;;16.30;99.90;;;;;;5054065;28;20191;-39
2022/08/23 05:59:26;;;;;;;8.30;4.03;;;16.40;99.90;;;;;;5053321;28;20195;-40
2022/08/23 06:01:52;;;;;;;10.40;4.80;;;16.50;99.90;;;;;;5053697;28;20208;-41
2022/08/23 06:04:18;;;;;;;10.70;4.80;;;16.50;99.90;;;;;;5053725;28;20184;-41
2022/08/23 06:06:44;;;;;;;8.63;4.50;;;16.70;99.90;;;;;;5053701;28;20180;-37
2022/08/23 06:09:13;;;;;;;8.83;4.13;;;16.80;99.90;;;;;;5035645;28;20188;-41
2022/08/23 06:11:39;;;;;;;8.10;4.30;;;16.90;99.90;;;;;;5053534;28;20196;-39
2022/08/23 06:14:07;;;;;;;7.70;4.27;;;17.00;99.90;;;;;;5053713;28;20636;-42
2022/08/23 06:16:35;;;;;;;7.07;4.37;;;17.10;99.90;;;;;;5053721;28;20191;-41
2022/08/23 06:19:02;;;;;;;6.53;3.63;;;17.30;99.90;;;;;;5053820;28;20172;-40
2022/08/23 06:21:29;;;;;;;10.17;4.50;;;17.30;99.90;;;;;;5053262;28;20307;-41
2022/08/23 06:23:55;;;;;;;7.23;4.63;;;17.50;99.90;;;;;;5053503;28;20267;-41
2022/08/23 06:26:39;;;;;;;7.47;4.10;;;17.60;99.90;;;;;;5053423;28;20204;-41
2022/08/23 06:29:09;;;;;;;8.00;4.03;;;17.90;99.90;;;;;;5053620;28;20185;-41
2022/08/23 06:31:47;;;;;;;6.47;4.00;;;18.10;99.90;;;;;;5053634;28;20254;-41
2022/08/23 06:34:31;;;;;;;8.83;3.63;;;18.30;99.90;;;;;;5053615;28;20164;-41
2022/08/23 06:37:00;;;;;;;11.50;4.43;;;18.50;99.90;;;;;;5053943;28;20183;-41
2022/08/23 06:39:28;;;;;;;11.50;3.87;;;18.80;99.90;;;;;;5036281;28;20600;-44
2022/08/23 06:42:02;;;;;;;15.67;3.97;;;18.90;99.90;;;;;;5056386;28;20204;-41
2022/08/23 06:44:28;;;;;;;6.33;3.87;;;19.10;99.90;;;;;;5055043;28;20616;-41
2022/08/23 06:46:56;;;;;;;7.30;3.37;;;19.30;99.90;;;;;;5056402;28;20188;-44
2022/08/23 06:49:22;;;;;;;15.67;3.80;;;19.50;99.90;;;;;;5054526;28;20806;-39
2022/08/23 06:51:50;;;;;;;6.70;3.83;;;19.60;99.90;;;;;;5057465;28;20211;-44
2022/08/23 06:54:19;;;;;;;9.90;3.97;;;19.80;99.90;;;;;;5058028;28;20176;-43
2022/08/23 06:56:45;;;;;;;12.83;4.10;;;19.90;99.90;;;;;;5055748;28;20255;-40
2022/08/23 06:59:11;;;;;;;18.70;4.27;;;19.90;99.90;;;;;;5053771;28;20262;-44
2022/08/23 07:01:50;;;;;;;7.60;4.00;;;20.10;99.90;;;;;;5053487;28;20203;-42
2022/08/23 07:04:21;;;;;;;11.67;4.27;;;20.00;99.90;;;;;;5053434;28;20217;-43
2022/08/23 07:06:47;;;;;;;9.53;3.70;;;20.20;99.90;;;;;;5035299;28;20643;-44
2022/08/23 07:09:13;;;;;;;8.07;4.10;;;20.40;99.90;;;;;;5053179;28;20179;-44
2022/08/23 07:11:39;;;;;;;15.40;4.80;;;20.70;99.90;;;;;;5055915;28;20192;-43
2022/08/23 07:14:09;;;;;;;8.70;4.23;;;21.00;99.90;;;;;;5057383;28;20259;-43
2022/08/23 07:16:44;;;;;;;7.23;3.70;;;21.20;99.90;;;;;;5057681;28;20234;-43
2022/08/23 07:19:11;;;;;;;9.53;3.70;;;21.50;99.90;;;;;;5057196;28;20245;-41
2022/08/23 07:21:37;;;;;;;9.10;4.80;;;21.80;99.90;;;;;;5056662;28;20211;-40
2022/08/23 07:24:03;;;;;;;15.73;4.50;;;22.00;99.90;;;;;;5057316;28;20172;-40
2022/08/23 07:26:32;;;;;;;15.37;4.77;;;22.20;99.90;;;;;;5056814;28;20584;-39
2022/08/23 07:28:57;;;;;;;14.93;4.30;;;22.40;99.90;;;;;;5056822;28;20180;-40
2022/08/23 07:31:27;;;;;;;11.03;4.47;;;22.50;99.90;;;;;;5056614;28;20214;-41
2022/08/23 07:33:54;;;;;;;8.27;3.63;;;22.70;99.90;;;;;;5038691;28;20212;-41
2022/08/23 07:36:21;;;;;;;8.27;4.13;;;22.90;99.90;;;;;;5056744;28;20541;-40
2022/08/23 07:38:48;;;;;;;6.60;3.50;;;23.10;99.90;;;;;;5038921;28;20758;-41
2022/08/23 07:41:16;;;;;;;6.87;3.13;;;23.30;99.90;;;;;;5057088;28;20691;-40
2022/08/23 07:43:42;;;;;;;9.17;3.23;;;23.50;99.90;;;;;;5057891;28;20188;-40
2022/08/23 07:46:08;;;;;;;7.77;3.73;;;23.60;99.90;;;;;;5057201;28;20207;-40
2022/08/23 07:48:35;;;;;;;6.87;3.80;;;23.80;99.90;;;;;;5057733;28;20184;-41
2022/08/23 07:51:05;;;;;;;12.60;4.10;;;23.90;99.90;;;;;;5056830;28;20773;-41
2022/08/23 07:53:31;;;;;;;7.00;3.77;;;24.10;99.90;;;;;;5056226;28;20247;-41
2022/08/23 07:55:56;;;;;;;10.20;3.70;;;24.20;99.90;;;;;;5056212;28;20251;-40
2022/08/23 07:58:23;;;;;;;5.03;3.30;;;24.30;99.90;;;;;;5056394;28;20172;-41
2022/08/23 08:00:50;;;;;;;6.83;3.87;;;24.40;99.90;;;;;;5056494;28;20541;-40
2022/08/23 08:03:17;;;;;;;9.67;3.20;;;24.50;99.90;;;;;;5056911;28;20226;-40
2022/08/23 08:05:43;;;;;;;14.10;3.50;;;24.60;99.90;;;;;;5056046;28;20181;-40
2022/08/23 08:08:09;;;;;;;9.47;3.20;;;24.80;99.90;;;;;;5056213;28;20546;-41
2022/08/23 08:10:37;;;;;;;11.17;3.97;;;24.90;99.90;;;;;;5055816;28;20219;-40
2022/08/23 08:13:03;;;;;;;13.13;3.00;;;25.10;99.90;;;;;;5056071;28;20599;-44
2022/08/23 08:15:29;;;;;;;10.63;3.70;;;25.20;99.90;;;;;;5063823;28;20226;-43
2022/08/23 08:17:55;;;;;;;11.87;3.43;;;25.30;99.90;;;;;;5064524;28;20183;-44
2022/08/23 08:20:21;;;;;;;8.30;3.40;;;25.30;99.90;;;;;;5045908;28;20184;-44
2022/08/23 08:22:47;;;;;;;9.63;3.13;;;25.40;99.90;;;;;;5063108;28;20195;-43
2022/08/23 08:25:14;;;;;;;6.33;2.67;;;25.50;99.90;;;;;;5065633;28;20184;-45
2022/08/23 08:27:41;;;;;;;9.37;2.90;;;25.50;99.90;;;;;;5064731;28;20224;-45
2022/08/23 08:30:08;;;;;;;4.40;2.30;;;25.60;99.90;;;;;;5065462;28;20204;-45
2022/08/23 08:32:35;;;;;;;8.37;3.00;;;25.70;99.90;;;;;;5065774;28;20192;-46
2022/08/23 08:35:01;;;;;;;9.40;2.80;;;25.80;99.90;;;;;;5065235;28;20232;-45
2022/08/23 08:37:27;;;;;;;7.60;2.73;;;25.90;99.90;;;;;;5065091;28;20652;-45
2022/08/23 08:39:53;;;;;;;8.73;2.77;;;26.00;99.90;;;;;;5065517;28;20522;-46
2022/08/23 08:42:33;;;;;;;5.67;2.60;;;26.00;99.90;;;;;;5065925;28;20214;-44
2022/08/23 08:45:10;;;;;;;4.63;2.73;;;26.20;99.90;;;;;;5066028;28;20240;-46
2022/08/23 08:48:00;;;;;;;8.37;2.70;;;26.30;99.90;;;;;;5064549;28;20191;-45
2022/08/23 08:50:48;;;;;;;8.17;2.10;;;26.50;99.90;;;;;;5064146;28;20188;-45
2022/08/23 08:53:21;;;;;;;8.33;2.77;;;26.50;99.90;;;;;;5062832;28;20188;-44
2022/08/23 08:55:50;;;;;;;9.00;2.70;;;26.50;99.90;;;;;;5062667;28;20545;-45
2022/08/23 08:58:28;;;;;;;11.03;2.50;;;26.50;99.90;;;;;;5043812;28;20184;-46
2022/08/23 09:00:54;;;;;;;6.03;2.50;;;26.50;99.90;;;;;;5061049;28;20208;-46
2022/08/23 09:03:21;;;;;;;6.63;2.43;;;26.50;99.90;;;;;;5060084;28;20181;-45
2022/08/23 09:06:19;;;;;;;6.93;2.70;;;26.60;99.90;;;;;;5060537;28;20200;-45
2022/08/23 09:09:26;;;;;;;9.57;2.73;;;26.70;99.90;;;;;;5060354;28;20255;-45
2022/08/23 09:11:58;;;;;;;8.90;2.43;;;26.80;99.90;;;;;;5060318;28;20216;-46
2022/08/23 09:14:56;;;;;;;10.40;2.70;;;26.90;99.90;;;;;;5061020;28;20585;-45
2022/08/23 09:17:42;;;;;;;8.07;2.50;;;27.00;99.90;;;;;;5061100;28;20519;-45
2022/08/23 09:20:12;;;;;;;4.17;1.83;;;27.10;99.90;;;;;;5060841;28;20164;-45
2022/08/23 09:22:50;;;;;;;6.47;2.20;;;27.20;99.90;;;;;;5060983;28;20204;-45
2022/08/23 09:25:16;;;;;;;10.00;2.40;;;27.20;99.90;;;;;;5061422;28;20173;-45
2022/08/23 09:27:43;;;;;;;2.83;1.73;;;27.40;99.90;;;;;;5061174;28;20176;-46
2022/08/23 09:30:12;;;;;;;9.23;2.10;;;27.50;99.90;;;;;;5061601;28;20208;-45
2022/08/23 09:32:42;;;;;;;8.07;2.07;;;27.60;99.90;;;;;;5061466;28;20242;-45
2022/08/23 09:35:15;;;;;;;10.30;2.57;;;27.70;99.90;;;;;;5043080;28;20532;-45
2022/08/23 09:38:00;;;;;;;8.50;2.90;;;27.70;99.90;;;;;;5060073;28;20687;-45
2022/08/23 09:40:35;;;;;;;5.13;1.90;;;27.80;99.90;;;;;;5059778;28;20164;-46
2022/08/23 09:43:22;;;;;;;7.50;1.97;;;27.80;99.90;;;;;;5059678;28;20152;-45
2022/08/23 09:45:47;;;;;;;5.13;1.70;;;27.90;99.90;;;;;;5059690;28;20531;-46
2022/08/23 09:48:30;;;;;;;4.47;1.80;;;27.90;99.90;;;;;;5060104;28;20263;-45
2022/08/23 09:51:22;;;;;;;6.77;2.10;;;28.00;99.90;;;;;;5057039;28;20220;-45
2022/08/23 09:53:52;;;;;;;5.27;1.77;;;28.10;99.90;;;;;;5055949;28;20275;-45
2022/08/23 09:56:25;;;;;;;7.07;2.07;;;28.10;99.90;;;;;;5056572;28;20195;-44
2022/08/23 09:58:52;;;;;;;3.63;1.77;;;28.20;99.90;;;;;;5038001;28;20259;-47
2022/08/23 10:01:20;;;;;;;7.17;1.80;;;28.30;99.90;;;;;;5056149;28;20203;-44
2022/08/23 10:03:46;;;;;;;6.20;1.90;;;28.30;99.90;;;;;;5056517;28;20724;-45
2022/08/23 10:06:27;;;;;;;11.90;2.33;;;28.40;99.90;;;;;;5056171;28;20184;-44
2022/08/23 10:08:57;;;;;;;4.80;1.67;;;28.60;99.90;;;;;;5055781;28;20260;-46
2022/08/23 10:11:27;;;;;;;3.93;1.80;;;28.70;99.90;;;;;;5056407;28;20273;-46
2022/08/23 10:13:52;;;;;;;6.23;2.10;;;28.80;99.90;;;;;;5056812;28;20573;-47
2022/08/23 10:16:31;;;;;;;6.40;2.00;;;28.90;99.90;;;;;;5055604;28;20176;-39
2022/08/23 10:19:07;;;;;;;6.50;2.00;;;28.90;99.90;;;;;;5053813;28;20635;-41
2022/08/23 10:22:28;;;;;;;6.35;2.20;;;28.90;99.90;;;;;;5053700;28;20238;-41
2022/08/23 10:25:38;;;;;;;3.03;1.70;;;29.00;99.90;;;;;;5012018;28;20582;-42
2022/08/23 10:31:17;;;;;;;5.95;2.08;;;29.20;99.90;;;;;;5053644;28;20579;-38
2022/08/23 10:34:15;;;;;;;8.93;1.92;;;28.90;99.90;;;;;;5053990;28;20164;-39
2022/08/23 10:37:25;;;;;;;9.20;2.40;;;28.90;99.90;;;;;;5053800;28;20635;-39
2022/08/23 10:40:06;;;;;;;3.80;1.70;;;28.90;99.90;;;;;;5053617;28;20172;-40
2022/08/23 10:42:52;;;;;;;3.53;2.03;;;29.00;99.90;;;;;;5053225;28;20203;-43
2022/08/23 10:45:34;;;;;;;2.90;1.48;;;29.30;99.90;;;;;;5052777;28;20732;-41
2022/08/23 10:48:26;;;;;;;5.50;1.90;;;29.40;99.90;;;;;;5035441;28;20247;-40
2022/08/23 10:51:09;;;;;;;4.55;1.80;;;29.60;99.90;;;;;;5053194;28;20752;-39
2022/08/23 10:54:12;;;;;;;3.67;1.70;;;29.50;99.90;;;;;;5053518;28;20164;-41
2022/08/23 10:56:38;;;;;;;4.18;1.63;;;29.30;99.90;;;;;;5036759;28;20196;-45
2022/08/23 10:59:19;;;;;;;3.72;1.80;;;29.30;99.90;;;;;;5056057;28;20188;-46
2022/08/23 11:02:13;;;;;;;4.68;1.60;;;29.40;99.90;;;;;;5056822;28;20199;-47
2022/08/23 11:05:06;;;;;;;4.32;1.70;;;29.50;99.90;;;;;;5056898;28;20160;-47
2022/08/23 11:07:36;;;;;;;4.68;1.77;;;29.60;99.90;;;;;;5057157;28;20175;-47
2022/08/23 11:10:04;;;;;;;12.43;2.10;;;29.60;99.90;;;;;;5056853;28;20200;-47
2022/08/23 11:12:34;;;;;;;10.40;2.08;;;29.50;99.90;;;;;;5057092;28;20695;-47
2022/08/23 11:15:16;;;;;;;7.28;2.88;;;29.50;99.90;;;;;;5057115;28;20184;-46
2022/08/23 11:17:48;;;;;;;2.53;1.45;;;29.60;99.90;;;;;;5039635;28;20168;-46
2022/08/23 11:20:49;;;;;;;3.97;2.08;;;29.80;99.90;;;;;;5056366;28;20184;-46
2022/08/23 11:23:33;;;;;;;3.47;1.60;;;29.90;99.90;;;;;;5056484;28;20717;-46
2022/08/23 11:25:59;;;;;;;5.65;1.90;;;30.20;99.90;;;;;;5056344;28;20188;-46
2022/08/23 11:28:25;;;;;;;4.90;2.20;;;30.30;99.90;;;;;;5056963;28;20177;-46
2022/08/23 11:31:10;;;;;;;5.03;1.63;;;30.40;99.90;;;;;;5056599;28;20231;-47
2022/08/23 11:33:46;;;;;;;4.35;1.60;;;30.30;99.90;;;;;;5055269;28;20601;-47
2022/08/23 11:36:23;;;;;;;3.13;1.50;;;30.30;99.90;;;;;;5053582;28;20200;-45
2022/08/23 11:38:48;;;;;;;4.90;1.83;;;30.20;99.90;;;;;;5052368;28;20251;-45
2022/08/23 11:41:52;;;;;;;4.20;1.73;;;30.10;99.90;;;;;;5052842;28;20688;-46
2022/08/23 11:44:24;;;;;;;5.38;1.75;;;29.90;99.90;;;;;;5041824;28;20192;-45
2022/08/23 11:46:58;;;;;;;6.70;2.10;;;29.90;99.90;;;;;;5052765;28;20694;-45
2022/08/23 11:49:29;;;;;;;6.97;2.00;;;29.80;99.90;;;;;;5052544;28;20199;-45
2022/08/23 11:52:13;;;;;;;5.82;1.88;;;29.80;99.90;;;;;;5052393;28;20623;-43
2022/08/23 11:55:09;;;;;;;4.35;2.15;;;29.90;99.90;;;;;;5052468;28;20199;-45
2022/08/23 11:58:06;;;;;;;5.45;1.98;;;30.00;99.90;;;;;;5053502;28;20538;-44
2022/08/23 12:01:01;;;;;;;5.07;1.55;;;30.10;99.90;;;;;;5056891;28;20172;-43
2022/08/23 12:03:32;;;;;;;4.53;1.60;;;30.20;99.90;;;;;;5057138;28;20172;-45
2022/08/23 12:06:18;;;;;;;5.63;1.60;;;30.20;99.90;;;;;;5056496;28;20173;-45
2022/08/23 12:09:00;;;;;;;3.78;1.40;;;30.20;99.90;;;;;;5056294;28;20699;-45
2022/08/23 12:11:54;;;;;;;3.58;1.88;;;30.20;99.90;;;;;;5055844;28;20211;-44
2022/08/23 12:14:41;;;;;;;7.47;1.73;;;30.30;99.90;;;;;;5055711;28;20169;-46
2022/08/23 12:17:24;;;;;;;4.15;1.65;;;30.50;99.90;;;;;;5037899;28;20160;-44
2022/08/23 12:20:07;;;;;;;7.35;1.98;;;30.70;99.90;;;;;;5037953;28;20172;-44
2022/08/23 12:22:51;;;;;;;3.28;1.58;;;30.90;99.90;;;;;;5055514;28;20764;-45
2022/08/23 12:25:20;;;;;;;2.88;1.45;;;31.00;99.90;;;;;;5056166;28;20181;-44
2022/08/23 12:27:54;;;;;;;3.72;1.50;;;31.20;99.90;;;;;;5055499;28;20263;-43
2022/08/23 12:30:29;;;;;;;4.72;1.63;;;31.30;99.90;;;;;;5055686;28;20607;-43
2022/08/23 12:33:03;;;;;;;4.90;1.67;;;31.40;99.90;;;;;;5055775;28;20156;-44
2022/08/23 12:35:49;;;;;;;2.78;1.33;;;31.70;99.90;;;;;;5055336;28;20245;-44
2022/08/23 12:38:23;;;;;;;3.35;1.40;;;31.90;99.90;;;;;;5055246;28;20203;-43
2022/08/23 12:40:52;;;;;;;5.43;1.30;;;32.10;99.90;;;;;;5055251;28;20266;-45
2022/08/23 12:43:21;;;;;;;3.13;1.50;;;32.30;99.90;;;;;;5055233;28;20684;-43
2022/08/23 12:45:50;;;;;;;2.88;1.55;;;32.50;99.90;;;;;;5055352;28;20637;-43
2022/08/23 12:48:20;;;;;;;3.42;1.30;;;32.40;99.90;;;;;;5055297;28;20715;-45
2022/08/23 12:51:01;;;;;;;4.93;1.80;;;32.40;99.90;;;;;;5055073;28;20212;-45
2022/08/23 12:53:35;;;;;;;3.83;1.45;;;32.40;99.90;;;;;;5055362;28;20679;-44
2022/08/23 12:56:13;;;;;;;5.90;1.50;;;32.50;99.90;;;;;;5055345;28;20226;-43
2022/08/23 12:58:38;;;;;;;3.33;1.60;;;32.40;99.90;;;;;;5055254;28;20152;-45
2022/08/23 13:01:15;;;;;;;3.42;1.55;;;32.20;99.90;;;;;;5054819;28;20614;-43
2022/08/23 13:03:45;;;;;;;3.55;1.42;;;32.10;98.50;;;;;;5054774;28;20187;-45
2022/08/23 13:06:15;;;;;;;3.80;1.80;;;32.00;99.90;;;;;;5054862;28;20180;-46
2022/08/23 13:08:53;;;;;;;3.75;1.40;;;32.10;99.90;;;;;;5054465;28;20168;-44
2022/08/23 13:11:21;;;;;;;3.85;1.50;;;32.10;99.90;;;;;;5054536;28;20215;-46
2022/08/23 13:13:48;;;;;;;4.32;1.33;;;32.10;99.10;;;;;;5054938;28;20541;-44
2022/08/23 13:16:28;;;;;;;5.10;1.55;;;32.10;98.10;;;;;;5054566;28;20280;-43
2022/08/23 13:19:32;;;;;;;3.70;1.35;;;31.80;98.70;;;;;;5054600;28;20247;-44
2022/08/23 13:22:16;;;;;;;1.98;1.33;;;31.70;99.90;;;;;;5054462;28;20610;-46